createdAt,value
2022-09-23T00:01:20.483Z,79.95
2022-09-23T00:03:48.908Z,80.64
2022-09-23T00:06:19.469Z,80.02
2022-09-23T00:08:47.355Z,79.68
2022-09-23T00:11:20.954Z,79.20
2022-09-23T00:13:51.782Z,79.10
2022-09-23T00:16:22.586Z,78.63
2022-09-23T00:18:50.402Z,78.29
2022-09-23T00:21:19.239Z,78.26
2022-09-23T00:23:47.601Z,77.92
2022-09-23T00:26:17.326Z,78.86
2022-09-23T00:28:45.366Z,78.23
2022-09-23T00:31:22.278Z,78.53
2022-09-23T00:33:57.605Z,78.56
2022-09-23T00:36:26.521Z,78.21
2022-09-23T00:38:54.765Z,77.80
2022-09-23T00:41:22.633Z,78.31
2022-09-23T00:43:50.458Z,77.58
2022-09-23T00:46:22.164Z,77.69
2022-09-23T00:48:54.459Z,77.75
2022-09-23T00:51:24.401Z,77.77
2022-09-23T00:53:52.853Z,77.58
2022-09-23T00:56:21.512Z,77.60
2022-09-23T00:58:49.773Z,77.78
2022-09-23T01:01:18.223Z,77.89
2022-09-23T01:03:46.058Z,78.80
2022-09-23T01:06:14.084Z,78.87
2022-09-23T01:08:44.056Z,79.21
2022-09-23T01:11:23.725Z,79.54
2022-09-23T01:14:10.423Z,79.60
2022-09-23T01:16:45.664Z,79.70
2022-09-23T01:19:32.052Z,79.70
2022-09-23T01:22:23.932Z,79.57
2022-09-23T01:25:02.057Z,79.40
2022-09-23T01:28:08.997Z,80.08
2022-09-23T01:30:58.439Z,80.12
2022-09-23T01:33:55.246Z,80.34
2022-09-23T01:36:29.068Z,79.83
2022-09-23T01:39:13.231Z,79.92
2022-09-23T01:41:56.376Z,80.88
2022-09-23T01:44:51.592Z,80.34
2022-09-23T01:47:24.426Z,80.20
2022-09-23T01:50:00.437Z,80.30
2022-09-23T01:52:35.692Z,80.93
2022-09-23T01:55:12.074Z,80.62
2022-09-23T01:57:57.784Z,80.06
2022-09-23T02:00:27.128Z,80.32
2022-09-23T02:03:02.265Z,80.38
2022-09-23T02:05:34.553Z,80.48
2022-09-23T02:08:13.276Z,81.46
2022-09-23T02:10:45.197Z,81.58
2022-09-23T02:13:23.747Z,81.58
2022-09-23T02:15:54.560Z,81.23
2022-09-23T02:18:25.328Z,81.20
2022-09-23T02:20:56.121Z,81.50
2022-09-23T02:23:35.487Z,81.82
2022-09-23T02:26:08.351Z,81.72
2022-09-23T02:29:10.351Z,81.42
2022-09-23T02:32:00.414Z,81.61
2022-09-23T02:34:48.624Z,81.58
2022-09-23T02:37:31.547Z,82.30
2022-09-23T02:40:09.043Z,81.99
2022-09-23T02:42:45.979Z,81.84
2022-09-23T02:45:13.966Z,81.47
2022-09-23T02:47:42.665Z,81.23
2022-09-23T02:50:10.339Z,81.27
2022-09-23T02:52:38.275Z,81.64
2022-09-23T02:55:06.811Z,81.69
2022-09-23T02:57:34.816Z,81.66
2022-09-23T03:00:03.521Z,81.10
2022-09-23T03:02:31.146Z,80.99
2022-09-23T03:05:10.887Z,80.82
2022-09-23T03:08:00.716Z,80.54
2022-09-23T03:10:37.716Z,80.49
2022-09-23T03:13:28.719Z,80.33
2022-09-23T03:16:00.173Z,81.13
2022-09-23T03:18:44.871Z,80.96
2022-09-23T03:21:32.698Z,81.00
2022-09-23T03:24:03.126Z,80.72
2022-09-23T03:26:33.625Z,80.61
2022-09-23T03:29:07.323Z,81.09
2022-09-23T03:31:36.761Z,81.22
2022-09-23T03:34:10.456Z,81.20
2022-09-23T03:36:45.195Z,80.52
2022-09-23T03:39:24.176Z,80.97
2022-09-23T03:41:52.941Z,81.05
2022-09-23T03:44:24.915Z,81.06
2022-09-23T03:46:52.527Z,80.63
2022-09-23T03:49:25.086Z,80.83
2022-09-23T03:51:53.867Z,81.28
2022-09-23T03:54:21.692Z,81.36
2022-09-23T03:56:49.298Z,82.02
2022-09-23T03:59:17.415Z,81.92
2022-09-23T04:01:45.115Z,81.77
2022-09-23T04:04:12.982Z,82.02
2022-09-23T04:06:40.561Z,82.61
2022-09-23T04:09:08.743Z,82.19
2022-09-23T04:11:36.792Z,82.08
2022-09-23T04:14:04.462Z,82.52
2022-09-23T04:16:32.096Z,82.03
2022-09-23T04:18:59.981Z,81.67
2022-09-23T04:21:27.568Z,81.31
2022-09-23T04:23:55.277Z,81.20
2022-09-23T04:26:23.183Z,82.76
2022-09-23T04:28:50.746Z,82.07
2022-09-23T04:31:18.401Z,80.52
2022-09-23T04:33:46.388Z,80.43
2022-09-23T04:36:14.053Z,80.30
2022-09-23T04:38:45.963Z,81.34
2022-09-23T04:41:14.171Z,82.44
2022-09-23T04:43:42.290Z,81.70
2022-09-23T04:46:11.953Z,80.46
2022-09-23T04:48:42.787Z,80.81
2022-09-23T04:51:16.150Z,81.45
2022-09-23T04:53:45.716Z,81.65
2022-09-23T04:56:16.695Z,81.60
2022-09-23T04:58:44.746Z,81.52
2022-09-23T05:01:20.997Z,82.06
2022-09-23T05:03:49.189Z,82.45
2022-09-23T05:06:19.529Z,82.02
2022-09-23T05:08:53.314Z,81.83
2022-09-23T05:11:22.414Z,81.22
2022-09-23T05:13:52.149Z,81.13
2022-09-23T05:16:20.589Z,81.83
2022-09-23T05:18:49.356Z,82.10
2022-09-23T05:21:20.264Z,82.13
2022-09-23T05:23:50.087Z,82.45
2022-09-23T05:26:17.802Z,82.34
2022-09-23T05:28:45.484Z,83.64
2022-09-23T05:31:20.354Z,83.37
2022-09-23T05:33:52.674Z,82.92
2022-09-23T05:36:24.915Z,82.90
2022-09-23T05:38:52.906Z,82.87
2022-09-23T05:41:21.760Z,83.39
2022-09-23T05:43:50.648Z,83.81
2022-09-23T05:46:21.403Z,83.66
2022-09-23T05:48:49.477Z,83.72
2022-09-23T05:51:22.003Z,83.63
2022-09-23T05:53:51.318Z,82.80
2022-09-23T05:56:20.980Z,81.66
2022-09-23T05:58:49.869Z,82.10
2022-09-23T06:01:20.286Z,82.40
2022-09-23T06:03:49.008Z,82.06
2022-09-23T06:06:18.296Z,82.89
2022-09-23T06:08:46.624Z,83.10
2022-09-23T06:11:14.515Z,82.77
2022-09-23T06:13:42.145Z,82.22
2022-09-23T06:16:11.861Z,81.69
2022-09-23T06:18:41.304Z,81.27
2022-09-23T06:21:10.621Z,81.10
2022-09-23T06:23:41.269Z,80.05
2022-09-23T06:26:10.283Z,79.64
2022-09-23T06:28:39.209Z,79.39
2022-09-23T06:31:13.414Z,79.62
2022-09-23T06:33:42.636Z,78.76
2022-09-23T06:36:11.067Z,77.89
2022-09-23T06:38:40.526Z,78.02
2022-09-23T06:41:08.491Z,78.24
2022-09-23T06:43:36.055Z,77.62
2022-09-23T06:46:05.515Z,77.24
2022-09-23T06:48:34.219Z,77.79
2022-09-23T06:51:03.898Z,76.05
2022-09-23T06:53:31.836Z,75.46
2022-09-23T06:56:03.917Z,75.57
2022-09-23T06:58:33.380Z,75.61
2022-09-23T07:01:07.130Z,75.46
2022-09-23T07:03:35.674Z,76.00
2022-09-23T07:06:04.354Z,74.71
2022-09-23T07:08:32.477Z,75.07
2022-09-23T07:11:02.606Z,74.74
2022-09-23T07:13:30.957Z,74.34
2022-09-23T07:15:59.456Z,72.97
2022-09-23T07:18:30.974Z,73.24
2022-09-23T07:21:15.565Z,73.35
2022-09-23T07:23:45.012Z,72.16
2022-09-23T07:26:13.732Z,71.17
2022-09-23T07:28:41.375Z,71.44
2022-09-23T07:31:14.783Z,70.76
2022-09-23T07:33:43.335Z,70.22
2022-09-23T07:36:16.229Z,70.75
2022-09-23T07:38:45.894Z,70.97
2022-09-23T07:41:16.968Z,70.54
2022-09-23T07:43:45.564Z,69.92
2022-09-23T07:46:15.773Z,69.66
2022-09-23T07:48:44.611Z,69.48
2022-09-23T07:51:18.573Z,69.83
2022-09-23T07:53:47.576Z,69.82
2022-09-23T07:56:19.697Z,69.06
2022-09-23T07:58:49.089Z,67.22
2022-09-23T08:01:16.947Z,67.49
2022-09-23T08:03:45.509Z,68.59
2022-09-23T08:06:13.642Z,66.30
2022-09-23T08:08:41.537Z,66.11
2022-09-23T08:11:11.245Z,65.40
2022-09-23T08:13:39.017Z,64.83
2022-09-23T08:16:06.774Z,64.62
2022-09-23T08:18:34.889Z,62.22
2022-09-23T08:21:02.699Z,62.22
2022-09-23T08:23:30.278Z,61.91
2022-09-23T08:26:02.660Z,63.87
2022-09-23T08:28:30.752Z,62.22
2022-09-23T08:30:59.231Z,60.17
2022-09-23T08:33:27.523Z,59.53
2022-09-23T08:36:01.857Z,59.77
2022-09-23T08:38:30.329Z,59.51
2022-09-23T08:41:32.034Z,60.55
2022-09-23T08:44:03.883Z,59.30
2022-09-23T08:46:35.341Z,57.56
2022-09-23T08:49:04.835Z,58.40
2022-09-23T08:51:45.847Z,57.52
2022-09-23T08:54:16.533Z,58.13
2022-09-23T08:56:48.943Z,56.88
2022-09-23T08:59:39.447Z,57.43
2022-09-23T09:02:23.157Z,56.92
2022-09-23T09:04:54.568Z,57.51
2022-09-23T09:07:36.278Z,57.33
2022-09-23T09:10:05.349Z,56.88
2022-09-23T09:12:37.875Z,58.04
2022-09-23T09:15:10.007Z,56.83
2022-09-23T09:17:40.096Z,57.47
2022-09-23T09:20:15.811Z,56.82
2022-09-23T09:22:55.088Z,56.22
2022-09-23T09:25:41.234Z,55.88
2022-09-23T09:28:41.584Z,56.66
2022-09-23T09:31:24.333Z,56.65
2022-09-23T09:34:02.702Z,56.01
2022-09-23T09:36:40.074Z,56.33
2022-09-23T09:39:11.850Z,54.96
2022-09-23T09:41:41.946Z,56.55
2022-09-23T09:44:25.983Z,56.00
2022-09-23T09:47:15.072Z,53.10
2022-09-23T09:50:00.528Z,52.99
2022-09-23T09:52:29.434Z,51.89
2022-09-23T09:55:12.726Z,51.43
2022-09-23T09:58:02.791Z,51.56
2022-09-23T10:00:30.467Z,53.04
2022-09-23T10:03:03.631Z,52.69
2022-09-23T10:05:51.258Z,52.39
2022-09-23T10:08:34.018Z,50.76
2022-09-23T10:11:12.987Z,51.19
2022-09-23T10:13:42.011Z,52.36
2022-09-23T10:16:09.617Z,51.55
2022-09-23T10:18:38.284Z,50.79
2022-09-23T10:21:11.831Z,52.44
2022-09-23T10:23:42.230Z,52.16
2022-09-23T10:26:11.428Z,51.22
2022-09-23T10:28:50.171Z,49.25
2022-09-23T10:31:35.276Z,48.17
2022-09-23T10:34:23.310Z,47.27
2022-09-23T10:37:03.600Z,46.31
2022-09-23T10:39:31.416Z,46.76
2022-09-23T10:42:05.186Z,46.33
2022-09-23T10:44:45.930Z,47.71
2022-09-23T10:47:32.090Z,46.34
2022-09-23T10:50:23.942Z,44.97
2022-09-23T10:53:09.836Z,46.95
2022-09-23T10:55:47.469Z,45.17
2022-09-23T10:58:56.143Z,43.99
2022-09-23T11:01:48.816Z,45.05
2022-09-23T11:04:44.291Z,45.17
2022-09-23T11:08:00.084Z,45.87
2022-09-23T11:10:58.959Z,44.85
2022-09-23T11:13:54.731Z,44.22
2022-09-23T11:16:39.253Z,41.58
2022-09-23T11:19:25.653Z,43.06
2022-09-23T11:21:56.269Z,44.13
2022-09-23T11:24:24.459Z,45.18
2022-09-23T11:26:52.279Z,44.06
2022-09-23T11:29:47.029Z,42.82
2022-09-23T11:32:14.564Z,42.08
2022-09-23T11:34:45.354Z,42.68
2022-09-23T11:37:20.357Z,41.80
2022-09-23T11:39:57.606Z,43.26
2022-09-23T11:42:41.076Z,45.60
2022-09-23T11:45:16.508Z,44.71
2022-09-23T11:47:48.914Z,45.27
2022-09-23T11:50:26.008Z,43.63
2022-09-23T11:52:57.860Z,44.10
2022-09-23T11:55:28.784Z,42.38
2022-09-23T11:57:57.326Z,44.99
2022-09-23T12:00:27.092Z,43.93
2022-09-23T12:03:07.099Z,44.20
2022-09-23T12:06:01.574Z,43.28
2022-09-23T12:08:36.677Z,43.12
2022-09-23T12:11:04.268Z,42.01
2022-09-23T12:14:00.685Z,39.46
2022-09-23T12:16:48.711Z,42.46
2022-09-23T12:19:27.662Z,40.20
2022-09-23T12:22:14.926Z,40.23
2022-09-23T12:25:07.574Z,40.32
2022-09-23T12:27:38.037Z,42.76
2022-09-23T12:30:17.089Z,41.64
2022-09-23T12:32:45.224Z,43.69
2022-09-23T12:35:31.271Z,42.29
2022-09-23T12:38:02.344Z,42.96
2022-09-23T12:40:35.134Z,41.85
2022-09-23T12:43:02.924Z,41.33
2022-09-23T12:45:30.786Z,41.77
2022-09-23T12:48:00.056Z,42.88
2022-09-23T12:50:47.482Z,44.43
2022-09-23T12:53:33.597Z,46.30
2022-09-23T12:56:19.692Z,46.19
2022-09-23T12:58:47.556Z,47.23
2022-09-23T13:01:15.334Z,46.55
2022-09-23T13:04:01.115Z,47.62
2022-09-23T13:06:44.031Z,46.04
2022-09-23T13:09:17.561Z,45.39
2022-09-23T13:11:46.047Z,46.58
2022-09-23T13:14:17.276Z,46.75
2022-09-23T13:16:45.761Z,47.02
2022-09-23T13:19:27.397Z,46.82
2022-09-23T13:22:06.989Z,47.86
2022-09-23T13:24:41.032Z,48.44
2022-09-23T13:27:15.037Z,49.23
2022-09-23T13:30:06.044Z,50.31
2022-09-23T13:32:37.532Z,49.65
2022-09-23T13:35:24.881Z,49.76
2022-09-23T13:37:53.239Z,49.83
2022-09-23T13:40:26.407Z,48.21
2022-09-23T13:43:03.466Z,49.42
2022-09-23T13:45:31.617Z,49.70
2022-09-23T13:48:09.031Z,48.85
2022-09-23T13:50:38.667Z,49.49
2022-09-23T13:53:10.772Z,50.38
2022-09-23T13:55:39.266Z,51.18
2022-09-23T13:58:22.084Z,50.96
2022-09-23T14:00:50.663Z,50.78
2022-09-23T14:03:27.109Z,49.72
2022-09-23T14:05:55.722Z,50.98
2022-09-23T14:08:24.018Z,50.97
2022-09-23T14:10:51.971Z,51.44
2022-09-23T14:13:26.322Z,52.25
2022-09-23T14:15:56.620Z,52.65
2022-09-23T14:18:29.184Z,50.72
2022-09-23T14:20:57.250Z,50.02
2022-09-23T14:23:24.903Z,50.44
2022-09-23T14:25:53.881Z,49.57
2022-09-23T14:28:23.534Z,51.92
2022-09-23T14:30:53.116Z,51.80
2022-09-23T14:33:30.972Z,55.18
2022-09-23T14:36:07.644Z,53.80
2022-09-23T14:38:35.980Z,54.35
2022-09-23T14:41:03.777Z,56.02
2022-09-23T14:43:31.590Z,56.15
2022-09-23T14:45:59.894Z,54.49
2022-09-23T14:48:33.033Z,54.52
2022-09-23T14:51:06.070Z,53.67
2022-09-23T14:53:39.188Z,53.34
2022-09-23T14:56:07.023Z,51.87
2022-09-23T14:58:53.286Z,53.78
2022-09-23T15:01:33.451Z,53.70
2022-09-23T15:04:13.350Z,53.42
2022-09-23T15:07:08.723Z,50.65
2022-09-23T15:09:38.923Z,48.02
2022-09-23T15:12:18.888Z,47.07
2022-09-23T15:14:51.380Z,48.84
2022-09-23T15:17:34.873Z,48.74
2022-09-23T15:20:05.735Z,48.83
2022-09-23T15:22:45.863Z,48.24
2022-09-23T15:25:33.001Z,47.17
2022-09-23T15:28:08.521Z,48.84
2022-09-23T15:30:36.802Z,47.28
2022-09-23T15:33:05.380Z,48.02
2022-09-23T15:35:33.364Z,50.15
2022-09-23T15:38:01.426Z,50.21
2022-09-23T15:40:34.586Z,50.60
2022-09-23T15:43:31.002Z,50.35
2022-09-23T15:46:03.776Z,50.66
2022-09-23T15:48:39.855Z,51.77
2022-09-23T15:51:08.083Z,51.82
2022-09-23T15:53:38.489Z,52.93
2022-09-23T15:56:06.348Z,53.17
2022-09-23T15:58:34.627Z,54.63
2022-09-23T16:01:03.225Z,57.00
2022-09-23T16:03:31.536Z,57.79
2022-09-23T16:06:01.190Z,56.83
2022-09-23T16:08:31.380Z,57.67
2022-09-23T16:10:59.383Z,58.07
2022-09-23T16:13:27.134Z,58.18
2022-09-23T16:15:56.085Z,58.73
2022-09-23T16:18:24.240Z,59.53
2022-09-23T16:20:51.848Z,60.01
2022-09-23T16:23:34.229Z,60.36
2022-09-23T16:26:05.441Z,60.83
2022-09-23T16:28:33.337Z,61.86
2022-09-23T16:31:00.913Z,61.97
2022-09-23T16:33:28.887Z,63.10
2022-09-23T16:35:59.656Z,62.23
2022-09-23T16:38:27.842Z,62.94
2022-09-23T16:40:56.509Z,64.07
2022-09-23T16:43:24.324Z,64.25
2022-09-23T16:45:51.954Z,64.37
2022-09-23T16:48:19.961Z,64.77
2022-09-23T16:50:48.596Z,65.01
2022-09-23T16:53:16.244Z,66.10
2022-09-23T16:55:44.168Z,66.41
2022-09-23T16:58:11.812Z,66.40
2022-09-23T17:00:39.524Z,66.53
2022-09-23T17:03:07.845Z,67.22
2022-09-23T17:05:35.508Z,67.46
2022-09-23T17:08:03.276Z,67.64
2022-09-23T17:10:31.170Z,67.21
2022-09-23T17:12:58.916Z,67.91
2022-09-23T17:15:26.594Z,69.01
2022-09-23T17:17:54.540Z,69.16
2022-09-23T17:20:22.279Z,69.34
2022-09-23T17:22:49.974Z,69.94
2022-09-23T17:25:17.927Z,69.29
2022-09-23T17:27:47.808Z,70.16
2022-09-23T17:30:15.603Z,70.33
2022-09-23T17:32:43.442Z,70.15
2022-09-23T17:35:12.142Z,70.38
2022-09-23T17:37:39.685Z,69.84
2022-09-23T17:40:08.316Z,70.06
2022-09-23T17:42:39.831Z,68.90
2022-09-23T17:45:09.256Z,69.30
2022-09-23T17:47:41.285Z,67.74
2022-09-23T17:50:09.630Z,68.21
2022-09-23T17:52:37.223Z,68.38
2022-09-23T17:55:05.876Z,67.02
2022-09-23T17:57:33.785Z,67.70
2022-09-23T18:00:01.545Z,67.06
2022-09-23T18:02:39.177Z,66.90
2022-09-23T18:05:07.936Z,66.35
2022-09-23T18:07:37.922Z,66.64
2022-09-23T18:10:07.172Z,67.48
2022-09-23T18:12:35.153Z,65.89
2022-09-23T18:15:02.988Z,65.73
2022-09-23T18:17:30.686Z,66.52
2022-09-23T18:19:59.227Z,66.42
2022-09-23T18:22:26.835Z,67.53
2022-09-23T18:24:54.492Z,67.54
2022-09-23T18:27:22.962Z,66.90
2022-09-23T18:29:53.143Z,67.56
2022-09-23T18:32:20.848Z,67.33
2022-09-23T18:34:48.912Z,67.63
2022-09-23T18:37:16.616Z,67.29
2022-09-23T18:39:44.651Z,67.57
2022-09-23T18:42:12.847Z,68.02
2022-09-23T18:44:41.776Z,67.91
2022-09-23T18:47:09.528Z,68.38
2022-09-23T18:49:37.464Z,68.03
2022-09-23T18:52:05.068Z,69.45
2022-09-23T18:54:32.718Z,68.91
2022-09-23T18:57:00.558Z,68.78
2022-09-23T18:59:29.866Z,69.23
2022-09-23T19:01:57.892Z,70.27
2022-09-23T19:04:27.006Z,70.24
2022-09-23T19:06:55.449Z,69.74
2022-09-23T19:09:23.558Z,70.16
2022-09-23T19:11:52.287Z,70.77
2022-09-23T19:14:20.233Z,71.12
2022-09-23T19:16:47.845Z,71.38
2022-09-23T19:19:16.491Z,71.11
2022-09-23T19:21:44.153Z,70.97
2022-09-23T19:24:12.287Z,71.86
2022-09-23T19:26:40.774Z,71.64
2022-09-23T19:29:13.707Z,72.26
2022-09-23T19:31:42.018Z,72.18
2022-09-23T19:34:14.770Z,72.19
2022-09-23T19:36:44.230Z,73.15
2022-09-23T19:39:14.794Z,73.28
2022-09-23T19:41:43.318Z,73.18
2022-09-23T19:44:11.272Z,72.95
2022-09-23T19:46:40.257Z,73.54
2022-09-23T19:49:08.438Z,73.79
2022-09-23T19:51:36.168Z,74.34
2022-09-23T19:54:04.986Z,76.53
2022-09-23T19:56:33.579Z,76.22
2022-09-23T19:59:01.738Z,75.24
2022-09-23T20:01:30.192Z,76.66
2022-09-23T20:03:58.655Z,78.29
2022-09-23T20:06:29.850Z,78.62
2022-09-23T20:08:58.843Z,75.40
2022-09-23T20:11:28.523Z,75.73
2022-09-23T20:13:59.624Z,75.38
2022-09-23T20:16:35.335Z,75.35
2022-09-23T20:19:06.923Z,75.70
2022-09-23T20:21:35.083Z,75.97
2022-09-23T20:24:03.540Z,75.49
2022-09-23T20:26:31.225Z,75.50
2022-09-23T20:28:59.256Z,75.24
2022-09-23T20:31:27.478Z,75.40
2022-09-23T20:33:56.692Z,75.57
2022-09-23T20:36:28.972Z,75.72
2022-09-23T20:38:58.527Z,75.84
2022-09-23T20:41:30.062Z,76.54
2022-09-23T20:43:58.576Z,76.17
2022-09-23T20:46:27.378Z,76.26
2022-09-23T20:48:55.181Z,75.92
2022-09-23T20:51:23.687Z,75.89
2022-09-23T20:53:52.174Z,76.24
2022-09-23T20:56:20.868Z,76.42
2022-09-23T20:58:48.859Z,76.31
2022-09-23T21:01:17.331Z,76.22
2022-09-23T21:03:47.158Z,75.85
2022-09-23T21:06:16.181Z,76.19
2022-09-23T21:08:44.218Z,76.28
2022-09-23T21:11:14.481Z,76.59
2022-09-23T21:13:46.431Z,76.28
2022-09-23T21:16:15.509Z,76.42
2022-09-23T21:18:44.127Z,76.19
2022-09-23T21:21:12.945Z,75.46
2022-09-23T21:23:42.164Z,75.22
2022-09-23T21:26:12.329Z,75.62
2022-09-23T21:28:42.384Z,76.07
2022-09-23T21:31:16.138Z,76.36
2022-09-23T21:33:43.724Z,75.93
2022-09-23T21:36:11.639Z,75.60
2022-09-23T21:38:39.496Z,75.69
2022-09-23T21:41:08.519Z,75.78
2022-09-23T21:43:38.315Z,76.05
2022-09-23T21:46:08.564Z,76.60
2022-09-23T21:48:38.336Z,76.13
2022-09-23T21:51:10.862Z,75.70
2022-09-23T21:53:39.245Z,75.52
2022-09-23T21:56:12.367Z,76.12
2022-09-23T21:58:42.048Z,75.75
2022-09-23T22:01:11.224Z,76.34
2022-09-23T22:03:39.474Z,76.00
2022-09-23T22:06:12.480Z,75.27
2022-09-23T22:08:42.138Z,75.78
2022-09-23T22:11:12.156Z,75.65
2022-09-23T22:13:40.004Z,75.69
2022-09-23T22:16:07.682Z,76.66
2022-09-23T22:18:35.448Z,77.54
2022-09-23T22:21:03.385Z,77.75
2022-09-23T22:23:31.007Z,77.10
2022-09-23T22:26:03.054Z,76.28
2022-09-23T22:28:32.618Z,76.74
2022-09-23T22:31:00.238Z,77.42
2022-09-23T22:33:27.879Z,77.72
2022-09-23T22:36:02.348Z,77.43
2022-09-23T22:38:30.019Z,76.95
2022-09-23T22:40:58.324Z,76.94
2022-09-23T22:43:26.001Z,77.31
2022-09-23T22:45:53.589Z,77.79
2022-09-23T22:48:21.613Z,77.61
2022-09-23T22:50:49.193Z,77.39
2022-09-23T22:53:16.751Z,76.88
2022-09-23T22:55:44.601Z,77.10
2022-09-23T22:58:31.222Z,77.39
2022-09-23T23:00:59.905Z,77.49
2022-09-23T23:03:27.601Z,77.24
2022-09-23T23:05:59.680Z,77.82
2022-09-23T23:08:31.168Z,76.92
2022-09-23T23:11:06.490Z,77.11
2022-09-23T23:13:34.469Z,77.71
2022-09-23T23:16:06.652Z,77.78
2022-09-23T23:18:36.496Z,76.99
2022-09-23T23:21:13.441Z,77.35
2022-09-23T23:23:46.549Z,77.27
2022-09-23T23:26:20.022Z,77.27
2022-09-23T23:28:49.091Z,77.56
2022-09-23T23:31:18.873Z,77.48
2022-09-23T23:33:47.049Z,77.18
2022-09-23T23:36:17.534Z,77.00
2022-09-23T23:38:46.572Z,77.16
2022-09-23T23:41:16.611Z,77.39
2022-09-23T23:43:46.415Z,77.19
2022-09-23T23:46:15.006Z,77.53
2022-09-23T23:48:42.905Z,77.62
2022-09-23T23:51:11.503Z,77.63
2022-09-23T23:53:40.140Z,77.09
2022-09-23T23:56:13.369Z,77.09
2022-09-23T23:58:41.703Z,77.20
